デンパサール の空港の天気 - METARとTAF

デンパサール国際空港 ( WADD / DPS ) - インドネシア バリ島デンパサール
飛行場実況気象(Metar)
観測時間09/25 09:30 WITA (09/25 01:30 UTC)
風向・風速東 5m/s
視程10km以上
天気現象
少しの雲 雲底高度 400m
全天の4割程度の雲 雲底高度 550m
気温29℃
湿度74%
気圧1013hPa
METARWADD 250130Z 09010KT 9999 FEW013 SCT018 29/24 Q1013 NOSIG
過去の天気等 Google飛行場航空写真 Wunderground天気予報

過去48時間のMETAR

飛行場予報(TAF)
発表時間: 9/25 07:00 WITA (9/24 23:00 UTC)
予報対象時間: 25日8時 WITA ~ 26日8時 WITA
風向・風速東南東 5m/s
視程10km以上
全天の4割程度の雲 雲底高度 520m
TAF WADD 242300Z 2500/2600 11010KT 9999 SCT017